sensor_id;sensor_type;location;lat;lon;timestamp;P1;durP1;ratioP1;P2;durP2;ratioP2
69985;SDS011;57328;52.054;5.294;2023-04-03T00:01:03;3.00;;;1.00;;
69985;SDS011;57328;52.054;5.294;2023-04-03T00:03:31;3.25;;;1.20;;
69985;SDS011;57328;52.054;5.294;2023-04-03T00:05:58;3.42;;;1.05;;
69985;SDS011;57328;52.054;5.294;2023-04-03T00:08:25;4.10;;;1.10;;
69985;SDS011;57328;52.054;5.294;2023-04-03T00:10:52;3.30;;;1.17;;
69985;SDS011;57328;52.054;5.294;2023-04-03T00:13:20;2.38;;;0.80;;
69985;SDS011;57328;52.054;5.294;2023-04-03T00:15:47;3.15;;;1.33;;
69985;SDS011;57328;52.054;5.294;2023-04-03T00:18:14;2.78;;;1.25;;
69985;SDS011;57328;52.054;5.294;2023-04-03T00:20:41;3.20;;;1.10;;
69985;SDS011;57328;52.054;5.294;2023-04-03T00:23:09;3.17;;;1.02;;
69985;SDS011;57328;52.054;5.294;2023-04-03T00:25:36;2.58;;;1.17;;
69985;SDS011;57328;52.054;5.294;2023-04-03T00:28:04;3.17;;;1.17;;
69985;SDS011;57328;52.054;5.294;2023-04-03T00:30:31;2.90;;;1.10;;
69985;SDS011;57328;52.054;5.294;2023-04-03T00:32:59;4.45;;;1.40;;
69985;SDS011;57328;52.054;5.294;2023-04-03T00:35:27;5.45;;;1.00;;
69985;SDS011;57328;52.054;5.294;2023-04-03T00:37:55;2.63;;;1.00;;
69985;SDS011;57328;52.054;5.294;2023-04-03T00:40:23;2.40;;;1.00;;
69985;SDS011;57328;52.054;5.294;2023-04-03T00:42:51;3.78;;;1.20;;
69985;SDS011;57328;52.054;5.294;2023-04-03T00:45:23;2.65;;;1.10;;
69985;SDS011;57328;52.054;5.294;2023-04-03T00:47:51;5.70;;;1.63;;
69985;SDS011;57328;52.054;5.294;2023-04-03T00:50:18;3.17;;;1.02;;
69985;SDS011;57328;52.054;5.294;2023-04-03T00:52:46;3.10;;;1.20;;
69985;SDS011;57328;52.054;5.294;2023-04-03T00:55:15;3.03;;;1.15;;
69985;SDS011;57328;52.054;5.294;2023-04-03T00:57:43;1.83;;;0.93;;
69985;SDS011;57328;52.054;5.294;2023-04-03T01:00:12;1.98;;;0.90;;
69985;SDS011;57328;52.054;5.294;2023-04-03T01:02:41;3.38;;;1.25;;
69985;SDS011;57328;52.054;5.294;2023-04-03T01:05:08;2.05;;;1.05;;
69985;SDS011;57328;52.054;5.294;2023-04-03T01:07:36;2.10;;;0.90;;
69985;SDS011;57328;52.054;5.294;2023-04-03T01:10:05;2.47;;;0.90;;
69985;SDS011;57328;52.054;5.294;2023-04-03T01:12:34;3.63;;;1.20;;
69985;SDS011;57328;52.054;5.294;2023-04-03T01:15:06;4.10;;;1.30;;
69985;SDS011;57328;52.054;5.294;2023-04-03T01:17:35;3.63;;;1.17;;
69985;SDS011;57328;52.054;5.294;2023-04-03T01:22:55;4.82;;;1.40;;
69985;SDS011;57328;52.054;5.294;2023-04-03T01:25:23;1.63;;;0.70;;
69985;SDS011;57328;52.054;5.294;2023-04-03T01:27:51;4.20;;;1.40;;
69985;SDS011;57328;52.054;5.294;2023-04-03T01:30:19;1.95;;;0.73;;
69985;SDS011;57328;52.054;5.294;2023-04-03T01:32:46;2.75;;;0.95;;
69985;SDS011;57328;52.054;5.294;2023-04-03T01:35:14;1.92;;;0.70;;
69985;SDS011;57328;52.054;5.294;2023-04-03T01:37:41;4.68;;;1.20;;
69985;SDS011;57328;52.054;5.294;2023-04-03T01:40:08;4.68;;;1.45;;
69985;SDS011;57328;52.054;5.294;2023-04-03T01:42:36;4.38;;;1.30;;
69985;SDS011;57328;52.054;5.294;2023-04-03T01:45:03;4.18;;;0.95;;
69985;SDS011;57328;52.054;5.294;2023-04-03T01:47:30;2.60;;;1.08;;
69985;SDS011;57328;52.054;5.294;2023-04-03T01:49:57;2.90;;;1.13;;
69985;SDS011;57328;52.054;5.294;2023-04-03T01:52:25;1.48;;;0.80;;
69985;SDS011;57328;52.054;5.294;2023-04-03T01:54:52;3.90;;;1.25;;
69985;SDS011;57328;52.054;5.294;2023-04-03T01:57:19;3.22;;;1.52;;
69985;SDS011;57328;52.054;5.294;2023-04-03T01:59:46;2.80;;;1.02;;
69985;SDS011;57328;52.054;5.294;2023-04-03T02:02:13;2.80;;;1.10;;
69985;SDS011;57328;52.054;5.294;2023-04-03T02:04:41;5.20;;;1.55;;
69985;SDS011;57328;52.054;5.294;2023-04-03T02:07:08;3.45;;;1.38;;
69985;SDS011;57328;52.054;5.294;2023-04-03T02:09:35;3.13;;;1.15;;
69985;SDS011;57328;52.054;5.294;2023-04-03T02:12:02;3.45;;;1.40;;
69985;SDS011;57328;52.054;5.294;2023-04-03T02:14:29;3.65;;;1.42;;
69985;SDS011;57328;52.054;5.294;2023-04-03T02:16:56;3.40;;;1.73;;
69985;SDS011;57328;52.054;5.294;2023-04-03T02:19:24;5.22;;;1.50;;
69985;SDS011;57328;52.054;5.294;2023-04-03T02:21:51;3.78;;;1.55;;
69985;SDS011;57328;52.054;5.294;2023-04-03T02:24:18;4.22;;;1.45;;
69985;SDS011;57328;52.054;5.294;2023-04-03T02:26:46;2.53;;;1.40;;
69985;SDS011;57328;52.054;5.294;2023-04-03T02:29:13;5.30;;;1.80;;
69985;SDS011;57328;52.054;5.294;2023-04-03T02:31:40;6.10;;;1.50;;
69985;SDS011;57328;52.054;5.294;2023-04-03T02:34:08;5.43;;;1.42;;
69985;SDS011;57328;52.054;5.294;2023-04-03T02:36:35;6.03;;;1.75;;
69985;SDS011;57328;52.054;5.294;2023-04-03T02:39:02;2.38;;;1.00;;
69985;SDS011;57328;52.054;5.294;2023-04-03T02:41:29;5.15;;;1.27;;
69985;SDS011;57328;52.054;5.294;2023-04-03T02:44:01;4.03;;;1.65;;
69985;SDS011;57328;52.054;5.294;2023-04-03T02:46:28;2.50;;;1.08;;
69985;SDS011;57328;52.054;5.294;2023-04-03T02:48:56;4.28;;;1.20;;
69985;SDS011;57328;52.054;5.294;2023-04-03T02:51:23;3.80;;;1.42;;
69985;SDS011;57328;52.054;5.294;2023-04-03T02:53:50;2.03;;;1.08;;
69985;SDS011;57328;52.054;5.294;2023-04-03T02:56:17;6.07;;;1.65;;
69985;SDS011;57328;52.054;5.294;2023-04-03T02:58:46;4.47;;;1.70;;
69985;SDS011;57328;52.054;5.294;2023-04-03T03:01:13;3.63;;;1.70;;
69985;SDS011;57328;52.054;5.294;2023-04-03T03:03:41;4.03;;;1.60;;
69985;SDS011;57328;52.054;5.294;2023-04-03T03:09:37;7.88;;;2.05;;
69985;SDS011;57328;52.054;5.294;2023-04-03T03:12:05;4.93;;;1.33;;
69985;SDS011;57328;52.054;5.294;2023-04-03T03:14:32;4.60;;;1.65;;
69985;SDS011;57328;52.054;5.294;2023-04-03T03:16:59;5.13;;;1.73;;
69985;SDS011;57328;52.054;5.294;2023-04-03T03:19:26;5.35;;;1.48;;
69985;SDS011;57328;52.054;5.294;2023-04-03T03:21:53;5.45;;;2.05;;
69985;SDS011;57328;52.054;5.294;2023-04-03T03:24:21;6.35;;;1.60;;
69985;SDS011;57328;52.054;5.294;2023-04-03T03:26:48;7.03;;;1.88;;
69985;SDS011;57328;52.054;5.294;2023-04-03T03:29:15;6.22;;;1.70;;
69985;SDS011;57328;52.054;5.294;2023-04-03T03:31:42;5.97;;;1.70;;
69985;SDS011;57328;52.054;5.294;2023-04-03T03:34:10;2.67;;;1.17;;
69985;SDS011;57328;52.054;5.294;2023-04-03T03:36:38;3.15;;;1.38;;
69985;SDS011;57328;52.054;5.294;2023-04-03T03:39:05;6.10;;;1.90;;
69985;SDS011;57328;52.054;5.294;2023-04-03T03:41:32;4.65;;;1.80;;
69985;SDS011;57328;52.054;5.294;2023-04-03T03:43:59;5.07;;;1.55;;
69985;SDS011;57328;52.054;5.294;2023-04-03T03:46:27;5.80;;;1.80;;
69985;SDS011;57328;52.054;5.294;2023-04-03T03:48:54;4.75;;;1.80;;
69985;SDS011;57328;52.054;5.294;2023-04-03T03:51:21;4.50;;;1.65;;
69985;SDS011;57328;52.054;5.294;2023-04-03T03:53:48;5.40;;;1.83;;
69985;SDS011;57328;52.054;5.294;2023-04-03T03:56:15;4.72;;;1.65;;
69985;SDS011;57328;52.054;5.294;2023-04-03T03:58:43;2.97;;;1.60;;
69985;SDS011;57328;52.054;5.294;2023-04-03T04:01:10;6.80;;;2.03;;
69985;SDS011;57328;52.054;5.294;2023-04-03T04:03:37;5.57;;;1.83;;
69985;SDS011;57328;52.054;5.294;2023-04-03T04:06:04;5.70;;;1.60;;
69985;SDS011;57328;52.054;5.294;2023-04-03T04:08:32;3.92;;;1.60;;
69985;SDS011;57328;52.054;5.294;2023-04-03T04:10:59;5.60;;;2.10;;
69985;SDS011;57328;52.054;5.294;2023-04-03T04:13:26;4.10;;;1.60;;
69985;SDS011;57328;52.054;5.294;2023-04-03T04:15:53;3.10;;;2.13;;
69985;SDS011;57328;52.054;5.294;2023-04-03T04:18:20;8.68;;;2.13;;
69985;SDS011;57328;52.054;5.294;2023-04-03T04:20:48;6.15;;;1.73;;
69985;SDS011;57328;52.054;5.294;2023-04-03T04:23:16;8.45;;;2.33;;
69985;SDS011;57328;52.054;5.294;2023-04-03T04:25:46;4.97;;;1.40;;
69985;SDS011;57328;52.054;5.294;2023-04-03T04:28:14;5.70;;;1.67;;
69985;SDS011;57328;52.054;5.294;2023-04-03T04:30:42;8.52;;;2.42;;
69985;SDS011;57328;52.054;5.294;2023-04-03T04:33:09;4.43;;;1.70;;
69985;SDS011;57328;52.054;5.294;2023-04-03T04:35:36;4.45;;;1.70;;
69985;SDS011;57328;52.054;5.294;2023-04-03T04:38:04;3.63;;;1.58;;
69985;SDS011;57328;52.054;5.294;2023-04-03T04:40:31;5.63;;;1.90;;
69985;SDS011;57328;52.054;5.294;2023-04-03T04:42:59;11.25;;;2.25;;
69985;SDS011;57328;52.054;5.294;2023-04-03T04:45:26;7.78;;;2.38;;
69985;SDS011;57328;52.054;5.294;2023-04-03T04:47:55;3.70;;;1.42;;
69985;SDS011;57328;52.054;5.294;2023-04-03T04:50:22;5.60;;;2.20;;
69985;SDS011;57328;52.054;5.294;2023-04-03T04:52:49;4.65;;;1.95;;
69985;SDS011;57328;52.054;5.294;2023-04-03T04:55:16;5.18;;;1.73;;
69985;SDS011;57328;52.054;5.294;2023-04-03T04:57:43;6.88;;;2.05;;
69985;SDS011;57328;52.054;5.294;2023-04-03T05:00:12;6.53;;;2.20;;
69985;SDS011;57328;52.054;5.294;2023-04-03T05:02:39;4.55;;;1.65;;
69985;SDS011;57328;52.054;5.294;2023-04-03T05:05:07;4.45;;;2.03;;
69985;SDS011;57328;52.054;5.294;2023-04-03T05:07:34;8.10;;;2.08;;
69985;SDS011;57328;52.054;5.294;2023-04-03T05:10:02;4.28;;;1.80;;
69985;SDS011;57328;52.054;5.294;2023-04-03T05:12:30;5.15;;;1.92;;
69985;SDS011;57328;52.054;5.294;2023-04-03T05:14:57;5.28;;;1.77;;
69985;SDS011;57328;52.054;5.294;2023-04-03T05:17:24;7.93;;;3.08;;
69985;SDS011;57328;52.054;5.294;2023-04-03T05:19:51;6.85;;;1.83;;
69985;SDS011;57328;52.054;5.294;2023-04-03T05:22:19;7.53;;;2.08;;
69985;SDS011;57328;52.054;5.294;2023-04-03T05:24:47;5.30;;;1.73;;
69985;SDS011;57328;52.054;5.294;2023-04-03T05:27:14;3.00;;;1.38;;
69985;SDS011;57328;52.054;5.294;2023-04-03T05:29:41;2.92;;;1.35;;
69985;SDS011;57328;52.054;5.294;2023-04-03T05:32:10;6.07;;;2.33;;
69985;SDS011;57328;52.054;5.294;2023-04-03T05:34:38;7.22;;;2.10;;
69985;SDS011;57328;52.054;5.294;2023-04-03T05:37:05;6.30;;;2.13;;
69985;SDS011;57328;52.054;5.294;2023-04-03T05:39:32;7.70;;;2.35;;
69985;SDS011;57328;52.054;5.294;2023-04-03T05:41:59;7.32;;;2.30;;
69985;SDS011;57328;52.054;5.294;2023-04-03T05:44:27;5.07;;;2.00;;
69985;SDS011;57328;52.054;5.294;2023-04-03T05:46:54;6.22;;;2.25;;
69985;SDS011;57328;52.054;5.294;2023-04-03T05:49:21;5.45;;;2.10;;
69985;SDS011;57328;52.054;5.294;2023-04-03T05:51:49;5.63;;;2.40;;
69985;SDS011;57328;52.054;5.294;2023-04-03T05:54:18;7.13;;;2.15;;
69985;SDS011;57328;52.054;5.294;2023-04-03T05:56:46;6.30;;;2.00;;
69985;SDS011;57328;52.054;5.294;2023-04-03T05:59:13;6.90;;;2.42;;
69985;SDS011;57328;52.054;5.294;2023-04-03T06:01:41;7.03;;;2.00;;
69985;SDS011;57328;52.054;5.294;2023-04-03T06:04:08;6.65;;;2.13;;
69985;SDS011;57328;52.054;5.294;2023-04-03T06:06:46;6.30;;;2.00;;
69985;SDS011;57328;52.054;5.294;2023-04-03T06:09:15;10.65;;;2.38;;
69985;SDS011;57328;52.054;5.294;2023-04-03T06:11:43;5.93;;;2.28;;
69985;SDS011;57328;52.054;5.294;2023-04-03T06:14:10;7.07;;;2.20;;
69985;SDS011;57328;52.054;5.294;2023-04-03T06:16:38;5.45;;;1.67;;
69985;SDS011;57328;52.054;5.294;2023-04-03T06:19:06;7.30;;;2.28;;
69985;SDS011;57328;52.054;5.294;2023-04-03T06:21:33;6.05;;;2.22;;
69985;SDS011;57328;52.054;5.294;2023-04-03T06:24:04;5.85;;;1.80;;
69985;SDS011;57328;52.054;5.294;2023-04-03T06:26:32;5.65;;;2.00;;
69985;SDS011;57328;52.054;5.294;2023-04-03T06:28:59;5.20;;;1.90;;
69985;SDS011;57328;52.054;5.294;2023-04-03T06:31:30;7.47;;;1.92;;
69985;SDS011;57328;52.054;5.294;2023-04-03T06:33:58;6.05;;;1.83;;
69985;SDS011;57328;52.054;5.294;2023-04-03T06:36:25;6.20;;;1.80;;
69985;SDS011;57328;52.054;5.294;2023-04-03T06:38:52;7.18;;;1.80;;
69985;SDS011;57328;52.054;5.294;2023-04-03T06:41:19;7.43;;;1.65;;
69985;SDS011;57328;52.054;5.294;2023-04-03T06:43:47;7.35;;;1.88;;
69985;SDS011;57328;52.054;5.294;2023-04-03T06:46:15;5.43;;;1.60;;
69985;SDS011;57328;52.054;5.294;2023-04-03T06:48:43;6.47;;;1.80;;
69985;SDS011;57328;52.054;5.294;2023-04-03T06:51:29;6.40;;;1.90;;
69985;SDS011;57328;52.054;5.294;2023-04-03T06:53:57;8.02;;;1.90;;
69985;SDS011;57328;52.054;5.294;2023-04-03T06:56:25;4.60;;;1.42;;
69985;SDS011;57328;52.054;5.294;2023-04-03T06:58:53;4.72;;;1.73;;
69985;SDS011;57328;52.054;5.294;2023-04-03T07:01:20;6.28;;;1.60;;
69985;SDS011;57328;52.054;5.294;2023-04-03T07:03:49;3.42;;;1.30;;
69985;SDS011;57328;52.054;5.294;2023-04-03T07:06:17;5.05;;;1.58;;
69985;SDS011;57328;52.054;5.294;2023-04-03T07:08:44;3.53;;;1.33;;
69985;SDS011;57328;52.054;5.294;2023-04-03T07:11:12;4.38;;;1.55;;
69985;SDS011;57328;52.054;5.294;2023-04-03T07:13:39;6.88;;;2.17;;
69985;SDS011;57328;52.054;5.294;2023-04-03T07:16:07;3.15;;;1.30;;
69985;SDS011;57328;52.054;5.294;2023-04-03T07:18:35;5.57;;;1.55;;
69985;SDS011;57328;52.054;5.294;2023-04-03T07:21:03;3.17;;;1.52;;
69985;SDS011;57328;52.054;5.294;2023-04-03T07:23:30;4.45;;;1.75;;
69985;SDS011;57328;52.054;5.294;2023-04-03T07:25:58;3.38;;;1.42;;
69985;SDS011;57328;52.054;5.294;2023-04-03T07:28:25;6.15;;;1.48;;
69985;SDS011;57328;52.054;5.294;2023-04-03T07:31:03;4.28;;;1.50;;
69985;SDS011;57328;52.054;5.294;2023-04-03T07:33:31;5.90;;;1.42;;
69985;SDS011;57328;52.054;5.294;2023-04-03T07:35:58;5.15;;;1.50;;
69985;SDS011;57328;52.054;5.294;2023-04-03T07:38:26;4.07;;;1.10;;
69985;SDS011;57328;52.054;5.294;2023-04-03T07:40:53;4.45;;;1.50;;
69985;SDS011;57328;52.054;5.294;2023-04-03T07:43:21;5.40;;;1.75;;
69985;SDS011;57328;52.054;5.294;2023-04-03T07:45:48;3.92;;;1.30;;
69985;SDS011;57328;52.054;5.294;2023-04-03T07:48:20;4.82;;;1.70;;
69985;SDS011;57328;52.054;5.294;2023-04-03T07:50:48;4.50;;;1.50;;
69985;SDS011;57328;52.054;5.294;2023-04-03T07:53:15;3.95;;;1.30;;
69985;SDS011;57328;52.054;5.294;2023-04-03T07:55:43;5.90;;;1.60;;
69985;SDS011;57328;52.054;5.294;2023-04-03T07:58:11;2.35;;;1.20;;
69985;SDS011;57328;52.054;5.294;2023-04-03T08:00:38;4.80;;;1.40;;
69985;SDS011;57328;52.054;5.294;2023-04-03T08:03:06;6.35;;;1.45;;
69985;SDS011;57328;52.054;5.294;2023-04-03T08:05:37;6.82;;;1.40;;
69985;SDS011;57328;52.054;5.294;2023-04-03T08:08:05;6.55;;;1.30;;
69985;SDS011;57328;52.054;5.294;2023-04-03T08:10:32;4.13;;;1.30;;
69985;SDS011;57328;52.054;5.294;2023-04-03T08:13:00;4.53;;;1.70;;
69985;SDS011;57328;52.054;5.294;2023-04-03T08:15:28;5.47;;;1.63;;
69985;SDS011;57328;52.054;5.294;2023-04-03T08:17:56;6.07;;;1.45;;
69985;SDS011;57328;52.054;5.294;2023-04-03T08:20:24;9.77;;;1.90;;
69985;SDS011;57328;52.054;5.294;2023-04-03T08:22:52;5.22;;;1.58;;
69985;SDS011;57328;52.054;5.294;2023-04-03T08:25:19;4.82;;;1.33;;
69985;SDS011;57328;52.054;5.294;2023-04-03T08:27:47;5.65;;;1.27;;
69985;SDS011;57328;52.054;5.294;2023-04-03T08:30:14;5.38;;;1.30;;
69985;SDS011;57328;52.054;5.294;2023-04-03T08:32:42;5.32;;;1.63;;
69985;SDS011;57328;52.054;5.294;2023-04-03T08:35:10;5.10;;;1.40;;
69985;SDS011;57328;52.054;5.294;2023-04-03T08:37:38;2.92;;;1.10;;
69985;SDS011;57328;52.054;5.294;2023-04-03T08:40:06;2.90;;;1.10;;
69985;SDS011;57328;52.054;5.294;2023-04-03T08:45:09;2.95;;;1.05;;
69985;SDS011;57328;52.054;5.294;2023-04-03T08:47:38;5.15;;;1.15;;
69985;SDS011;57328;52.054;5.294;2023-04-03T08:50:11;3.90;;;1.17;;
69985;SDS011;57328;52.054;5.294;2023-04-03T08:52:40;6.28;;;1.83;;
69985;SDS011;57328;52.054;5.294;2023-04-03T08:55:15;1.85;;;0.70;;
69985;SDS011;57328;52.054;5.294;2023-04-03T08:57:44;4.63;;;0.70;;
69985;SDS011;57328;52.054;5.294;2023-04-03T09:00:16;4.30;;;0.90;;
69985;SDS011;57328;52.054;5.294;2023-04-03T09:02:48;1.30;;;0.52;;
69985;SDS011;57328;52.054;5.294;2023-04-03T09:05:17;2.30;;;0.68;;
69985;SDS011;57328;52.054;5.294;2023-04-03T09:07:49;1.48;;;0.68;;
69985;SDS011;57328;52.054;5.294;2023-04-03T09:10:19;4.65;;;0.90;;
69985;SDS011;57328;52.054;5.294;2023-04-03T09:12:53;2.08;;;0.68;;
69985;SDS011;57328;52.054;5.294;2023-04-03T09:15:24;1.05;;;0.40;;
69985;SDS011;57328;52.054;5.294;2023-04-03T09:18:05;3.65;;;1.55;;
69985;SDS011;57328;52.054;5.294;2023-04-03T09:20:45;3.75;;;0.98;;
69985;SDS011;57328;52.054;5.294;2023-04-03T09:25:41;0.93;;;0.50;;
69985;SDS011;57328;52.054;5.294;2023-04-03T09:28:08;1.10;;;0.40;;
69985;SDS011;57328;52.054;5.294;2023-04-03T09:30:36;2.25;;;0.70;;
69985;SDS011;57328;52.054;5.294;2023-04-03T09:33:04;2.78;;;0.50;;
69985;SDS011;57328;52.054;5.294;2023-04-03T09:35:35;1.20;;;0.50;;
69985;SDS011;57328;52.054;5.294;2023-04-03T09:38:15;0.57;;;0.47;;
69985;SDS011;57328;52.054;5.294;2023-04-03T09:40:46;0.80;;;0.50;;
69985;SDS011;57328;52.054;5.294;2023-04-03T09:45:45;3.03;;;0.60;;
69985;SDS011;57328;52.054;5.294;2023-04-03T09:59:47;3.13;;;0.60;;
69985;SDS011;57328;52.054;5.294;2023-04-03T10:02:22;1.23;;;0.47;;
69985;SDS011;57328;52.054;5.294;2023-04-03T10:04:51;2.83;;;0.50;;
69985;SDS011;57328;52.054;5.294;2023-04-03T10:07:36;0.77;;;0.30;;
69985;SDS011;57328;52.054;5.294;2023-04-03T10:12:47;0.20;;;0.20;;
69985;SDS011;57328;52.054;5.294;2023-04-03T10:15:18;3.25;;;0.68;;
69985;SDS011;57328;52.054;5.294;2023-04-03T10:17:54;0.38;;;0.20;;
69985;SDS011;57328;52.054;5.294;2023-04-03T10:26:00;1.90;;;0.40;;
69985;SDS011;57328;52.054;5.294;2023-04-03T10:37:41;1.10;;;0.40;;
69985;SDS011;57328;52.054;5.294;2023-04-03T10:45:08;0.88;;;0.30;;
69985;SDS011;57328;52.054;5.294;2023-04-03T10:57:50;0.20;;;0.20;;
69985;SDS011;57328;52.054;5.294;2023-04-03T11:00:21;0.68;;;0.30;;
69985;SDS011;57328;52.054;5.294;2023-04-03T11:02:54;0.90;;;0.30;;
69985;SDS011;57328;52.054;5.294;2023-04-03T11:05:30;1.83;;;0.47;;
69985;SDS011;57328;52.054;5.294;2023-04-03T11:07:59;0.85;;;0.45;;
69985;SDS011;57328;52.054;5.294;2023-04-03T11:10:37;0.40;;;0.30;;
69985;SDS011;57328;52.054;5.294;2023-04-03T11:13:14;0.88;;;0.50;;
69985;SDS011;57328;52.054;5.294;2023-04-03T11:15:42;1.27;;;0.45;;
69985;SDS011;57328;52.054;5.294;2023-04-03T11:18:16;0.82;;;0.40;;
69985;SDS011;57328;52.054;5.294;2023-04-03T11:20:50;1.48;;;0.43;;
69985;SDS011;57328;52.054;5.294;2023-04-03T11:23:26;1.05;;;0.73;;
69985;SDS011;57328;52.054;5.294;2023-04-03T11:26:13;0.57;;;0.45;;
69985;SDS011;57328;52.054;5.294;2023-04-03T11:28:42;1.70;;;0.40;;
69985;SDS011;57328;52.054;5.294;2023-04-03T11:36:26;1.08;;;0.40;;
69985;SDS011;57328;52.054;5.294;2023-04-03T11:39:00;1.35;;;0.60;;
69985;SDS011;57328;52.054;5.294;2023-04-03T11:41:29;0.90;;;0.40;;
69985;SDS011;57328;52.054;5.294;2023-04-03T11:44:04;1.73;;;0.47;;
69985;SDS011;57328;52.054;5.294;2023-04-03T11:46:52;0.38;;;0.35;;
69985;SDS011;57328;52.054;5.294;2023-04-03T11:52:53;0.95;;;0.38;;
69985;SDS011;57328;52.054;5.294;2023-04-03T11:58:32;1.98;;;0.30;;
69985;SDS011;57328;52.054;5.294;2023-04-03T12:16:06;1.52;;;0.52;;
69985;SDS011;57328;52.054;5.294;2023-04-03T12:18:43;1.30;;;0.50;;
69985;SDS011;57328;52.054;5.294;2023-04-03T12:21:12;3.25;;;0.60;;
69985;SDS011;57328;52.054;5.294;2023-04-03T12:23:56;1.30;;;0.70;;
69985;SDS011;57328;52.054;5.294;2023-04-03T12:26:28;1.77;;;0.73;;
69985;SDS011;57328;52.054;5.294;2023-04-03T12:29:15;2.08;;;0.60;;
69985;SDS011;57328;52.054;5.294;2023-04-03T12:37:00;5.30;;;0.50;;
69985;SDS011;57328;52.054;5.294;2023-04-03T12:39:40;3.08;;;0.80;;
69985;SDS011;57328;52.054;5.294;2023-04-03T12:47:28;1.00;;;0.55;;
69985;SDS011;57328;52.054;5.294;2023-04-03T12:52:31;1.42;;;0.63;;
69985;SDS011;57328;52.054;5.294;2023-04-03T12:55:00;1.40;;;0.63;;
69985;SDS011;57328;52.054;5.294;2023-04-03T12:57:31;2.22;;;0.60;;
69985;SDS011;57328;52.054;5.294;2023-04-03T12:59:59;2.38;;;0.75;;
69985;SDS011;57328;52.054;5.294;2023-04-03T13:04:55;0.80;;;0.43;;
69985;SDS011;57328;52.054;5.294;2023-04-03T13:09:55;2.05;;;0.60;;
69985;SDS011;57328;52.054;5.294;2023-04-03T13:12:23;0.85;;;0.50;;
69985;SDS011;57328;52.054;5.294;2023-04-03T13:14:54;2.60;;;0.50;;
69985;SDS011;57328;52.054;5.294;2023-04-03T13:17:21;2.30;;;0.70;;
69985;SDS011;57328;52.054;5.294;2023-04-03T13:19:49;0.50;;;0.43;;
69985;SDS011;57328;52.054;5.294;2023-04-03T13:22:34;3.28;;;1.10;;
69985;SDS011;57328;52.054;5.294;2023-04-03T13:25:08;0.85;;;0.63;;
69985;SDS011;57328;52.054;5.294;2023-04-03T13:27:36;3.88;;;1.00;;
69985;SDS011;57328;52.054;5.294;2023-04-03T13:30:05;2.33;;;0.50;;
69985;SDS011;57328;52.054;5.294;2023-04-03T13:32:33;1.52;;;0.60;;
69985;SDS011;57328;52.054;5.294;2023-04-03T13:35:00;1.48;;;0.90;;
69985;SDS011;57328;52.054;5.294;2023-04-03T13:37:53;4.07;;;0.82;;
69985;SDS011;57328;52.054;5.294;2023-04-03T13:40:25;1.58;;;0.60;;
69985;SDS011;57328;52.054;5.294;2023-04-03T13:43:05;2.85;;;0.95;;
69985;SDS011;57328;52.054;5.294;2023-04-03T13:45:33;3.65;;;0.65;;
69985;SDS011;57328;52.054;5.294;2023-04-03T13:48:16;2.03;;;0.77;;
69985;SDS011;57328;52.054;5.294;2023-04-03T13:50:51;3.13;;;1.30;;
69985;SDS011;57328;52.054;5.294;2023-04-03T13:53:19;1.33;;;0.90;;
69985;SDS011;57328;52.054;5.294;2023-04-03T13:55:57;2.92;;;0.90;;
69985;SDS011;57328;52.054;5.294;2023-04-03T13:58:25;1.15;;;0.38;;
69985;SDS011;57328;52.054;5.294;2023-04-03T14:00:54;1.33;;;0.68;;
69985;SDS011;57328;52.054;5.294;2023-04-03T14:03:32;1.17;;;0.60;;
69985;SDS011;57328;52.054;5.294;2023-04-03T14:06:00;1.95;;;0.70;;
69985;SDS011;57328;52.054;5.294;2023-04-03T14:08:27;2.55;;;0.70;;
69985;SDS011;57328;52.054;5.294;2023-04-03T14:11:09;3.28;;;0.85;;
69985;SDS011;57328;52.054;5.294;2023-04-03T14:13:38;1.25;;;0.80;;
69985;SDS011;57328;52.054;5.294;2023-04-03T14:16:06;4.05;;;0.70;;
69985;SDS011;57328;52.054;5.294;2023-04-03T14:18:41;3.40;;;1.08;;
69985;SDS011;57328;52.054;5.294;2023-04-03T14:21:10;2.88;;;0.80;;
69985;SDS011;57328;52.054;5.294;2023-04-03T14:26:33;1.80;;;0.77;;
69985;SDS011;57328;52.054;5.294;2023-04-03T14:29:00;1.88;;;0.80;;
69985;SDS011;57328;52.054;5.294;2023-04-03T14:31:28;2.03;;;0.93;;
69985;SDS011;57328;52.054;5.294;2023-04-03T14:33:56;4.20;;;1.20;;
69985;SDS011;57328;52.054;5.294;2023-04-03T14:36:27;2.25;;;0.70;;
69985;SDS011;57328;52.054;5.294;2023-04-03T14:38:55;3.03;;;0.88;;
69985;SDS011;57328;52.054;5.294;2023-04-03T14:41:23;2.67;;;0.90;;
69985;SDS011;57328;52.054;5.294;2023-04-03T14:43:50;7.10;;;1.00;;
69985;SDS011;57328;52.054;5.294;2023-04-03T14:48:45;3.83;;;0.90;;
69985;SDS011;57328;52.054;5.294;2023-04-03T14:51:13;2.40;;;0.80;;
69985;SDS011;57328;52.054;5.294;2023-04-03T14:53:42;2.17;;;0.90;;
69985;SDS011;57328;52.054;5.294;2023-04-03T14:56:18;1.13;;;0.52;;
69985;SDS011;57328;52.054;5.294;2023-04-03T14:58:48;3.75;;;0.93;;
69985;SDS011;57328;52.054;5.294;2023-04-03T15:01:17;1.83;;;0.88;;
69985;SDS011;57328;52.054;5.294;2023-04-03T15:03:44;3.47;;;0.80;;
69985;SDS011;57328;52.054;5.294;2023-04-03T15:06:12;2.60;;;0.90;;
69985;SDS011;57328;52.054;5.294;2023-04-03T15:08:40;1.73;;;0.90;;
69985;SDS011;57328;52.054;5.294;2023-04-03T15:11:10;2.40;;;1.00;;
69985;SDS011;57328;52.054;5.294;2023-04-03T15:13:37;2.92;;;0.90;;
69985;SDS011;57328;52.054;5.294;2023-04-03T15:16:15;6.03;;;1.00;;
69985;SDS011;57328;52.054;5.294;2023-04-03T15:18:43;1.67;;;0.80;;
69985;SDS011;57328;52.054;5.294;2023-04-03T15:21:11;0.77;;;0.55;;
69985;SDS011;57328;52.054;5.294;2023-04-03T15:23:38;2.35;;;0.77;;
69985;SDS011;57328;52.054;5.294;2023-04-03T15:26:05;1.85;;;0.80;;
69985;SDS011;57328;52.054;5.294;2023-04-03T15:28:37;4.18;;;0.90;;
69985;SDS011;57328;52.054;5.294;2023-04-03T15:34:22;3.78;;;1.10;;
69985;SDS011;57328;52.054;5.294;2023-04-03T15:36:50;3.65;;;1.30;;
69985;SDS011;57328;52.054;5.294;2023-04-03T15:39:19;2.80;;;1.33;;
69985;SDS011;57328;52.054;5.294;2023-04-03T15:41:47;2.92;;;1.05;;
69985;SDS011;57328;52.054;5.294;2023-04-03T15:44:14;3.00;;;1.17;;
69985;SDS011;57328;52.054;5.294;2023-04-03T15:46:44;2.83;;;1.10;;
69985;SDS011;57328;52.054;5.294;2023-04-03T15:49:12;3.92;;;0.88;;
69985;SDS011;57328;52.054;5.294;2023-04-03T15:51:39;3.58;;;0.95;;
69985;SDS011;57328;52.054;5.294;2023-04-03T15:54:06;1.67;;;0.82;;
69985;SDS011;57328;52.054;5.294;2023-04-03T15:56:33;3.75;;;1.20;;
69985;SDS011;57328;52.054;5.294;2023-04-03T15:59:01;2.70;;;1.00;;
69985;SDS011;57328;52.054;5.294;2023-04-03T16:01:28;1.77;;;0.88;;
69985;SDS011;57328;52.054;5.294;2023-04-03T16:03:55;3.50;;;1.42;;
69985;SDS011;57328;52.054;5.294;2023-04-03T16:06:23;2.60;;;1.00;;
69985;SDS011;57328;52.054;5.294;2023-04-03T16:08:51;3.42;;;1.13;;
69985;SDS011;57328;52.054;5.294;2023-04-03T16:11:26;2.33;;;0.98;;
69985;SDS011;57328;52.054;5.294;2023-04-03T16:13:53;4.25;;;1.27;;
69985;SDS011;57328;52.054;5.294;2023-04-03T16:16:21;1.50;;;0.63;;
69985;SDS011;57328;52.054;5.294;2023-04-03T16:18:49;3.92;;;1.10;;
69985;SDS011;57328;52.054;5.294;2023-04-03T16:21:16;3.90;;;0.90;;
69985;SDS011;57328;52.054;5.294;2023-04-03T16:23:44;3.25;;;1.02;;
69985;SDS011;57328;52.054;5.294;2023-04-03T16:26:11;2.58;;;0.90;;
69985;SDS011;57328;52.054;5.294;2023-04-03T16:28:39;3.40;;;1.17;;
69985;SDS011;57328;52.054;5.294;2023-04-03T16:31:06;2.20;;;1.00;;
69985;SDS011;57328;52.054;5.294;2023-04-03T16:33:34;3.05;;;1.15;;
69985;SDS011;57328;52.054;5.294;2023-04-03T16:39:31;2.72;;;1.08;;
69985;SDS011;57328;52.054;5.294;2023-04-03T16:42:01;3.75;;;0.98;;
69985;SDS011;57328;52.054;5.294;2023-04-03T16:44:28;5.30;;;1.50;;
69985;SDS011;57328;52.054;5.294;2023-04-03T16:46:56;2.40;;;1.00;;
69985;SDS011;57328;52.054;5.294;2023-04-03T16:49:23;4.88;;;1.40;;
69985;SDS011;57328;52.054;5.294;2023-04-03T16:51:51;5.00;;;0.90;;
69985;SDS011;57328;52.054;5.294;2023-04-03T16:54:18;3.60;;;0.90;;